createdAt,value
2019-01-25T00:01:12.710Z,98852.11
2019-01-25T00:03:42.312Z,98847.13
2019-01-25T00:06:11.928Z,98858.75
2019-01-25T00:08:41.536Z,98869.70
2019-01-25T00:11:11.113Z,98873.00
2019-01-25T00:13:40.660Z,98870.03
2019-01-25T00:16:10.260Z,98871.03
2019-01-25T00:18:39.772Z,98868.59
2019-01-25T00:21:09.449Z,98856.77
2019-01-25T00:23:38.995Z,98861.94
2019-01-25T00:26:08.526Z,98857.12
2019-01-25T00:28:38.129Z,98857.27
2019-01-25T00:31:07.657Z,98881.02
2019-01-25T00:33:37.210Z,98888.00
2019-01-25T00:36:06.953Z,98879.38
2019-01-25T00:38:36.527Z,98882.38
2019-01-25T00:41:06.180Z,98891.00
2019-01-25T00:43:35.716Z,98901.14
2019-01-25T00:46:05.369Z,98898.48
2019-01-25T00:48:34.932Z,98891.49
2019-01-25T00:51:04.583Z,98889.36
2019-01-25T00:53:34.134Z,98888.37
2019-01-25T00:56:03.697Z,98898.17
2019-01-25T00:58:33.252Z,98905.99
2019-01-25T01:01:02.901Z,98911.62
2019-01-25T01:03:32.501Z,98908.62
2019-01-25T01:06:02.071Z,98914.89
2019-01-25T01:08:31.688Z,98914.24
2019-01-25T01:11:01.224Z,98923.23
2019-01-25T01:13:30.929Z,98925.56
2019-01-25T01:16:00.547Z,98921.91
2019-01-25T01:18:30.097Z,98921.57
2019-01-25T01:20:59.723Z,98911.27
2019-01-25T01:23:29.299Z,98915.88
2019-01-25T01:25:58.882Z,98914.89
2019-01-25T01:28:28.476Z,98921.53
2019-01-25T01:30:58.009Z,98919.55
2019-01-25T01:33:27.572Z,98917.58
2019-01-25T01:35:57.110Z,98936.83
2019-01-25T01:38:26.713Z,98946.67
2019-01-25T01:40:56.313Z,98961.30
2019-01-25T01:43:25.850Z,98964.75
2019-01-25T01:45:55.526Z,98962.58
2019-01-25T01:48:25.123Z,98970.37
2019-01-25T01:50:55.353Z,98970.70
2019-01-25T01:53:24.961Z,98968.39
2019-01-25T01:55:54.576Z,98957.45
2019-01-25T01:58:24.674Z,98942.19
2019-01-25T02:00:54.236Z,98947.50
2019-01-25T02:03:24.014Z,98945.30
2019-01-25T02:05:53.680Z,98942.60
2019-01-25T02:08:23.230Z,98941.13
2019-01-25T02:10:52.865Z,98932.91
2019-01-25T02:13:22.412Z,98925.77
2019-01-25T02:15:51.957Z,98925.29
2019-01-25T02:18:21.544Z,98920.45
2019-01-25T02:20:51.099Z,98907.67
2019-01-25T02:23:20.693Z,98920.47
2019-01-25T02:25:50.283Z,98917.31
2019-01-25T02:28:19.828Z,98892.56
2019-01-25T02:30:50.007Z,98888.91
2019-01-25T02:33:19.653Z,98881.59
2019-01-25T02:35:49.316Z,98874.79
2019-01-25T02:38:18.857Z,98872.28
2019-01-25T02:40:48.414Z,98866.59
2019-01-25T02:43:18.003Z,98865.41
2019-01-25T02:45:47.577Z,98866.89
2019-01-25T02:48:17.154Z,98875.34
2019-01-25T02:50:46.791Z,98858.23
2019-01-25T02:53:16.326Z,98860.55
2019-01-25T02:55:45.907Z,98844.56
2019-01-25T02:58:15.464Z,98856.18
2019-01-25T03:00:45.025Z,98858.53
2019-01-25T03:03:14.598Z,98857.20
2019-01-25T03:05:44.188Z,98853.56
2019-01-25T03:08:13.724Z,98839.64
2019-01-25T03:10:47.200Z,98839.64
2019-01-25T03:13:14.534Z,98852.28
2019-01-25T03:15:44.162Z,98863.93
2019-01-25T03:18:13.784Z,98867.42
2019-01-25T03:20:43.335Z,98865.95
2019-01-25T03:23:12.929Z,98867.31
2019-01-25T03:25:42.477Z,98876.80
2019-01-25T03:28:12.032Z,98872.31
2019-01-25T03:30:41.565Z,98859.34
2019-01-25T03:33:11.126Z,98868.64
2019-01-25T03:35:40.846Z,98871.30
2019-01-25T03:38:10.468Z,98882.27
2019-01-25T03:40:40.025Z,98874.86
2019-01-25T03:43:09.556Z,98864.87
2019-01-25T03:45:39.179Z,98854.39
2019-01-25T03:48:08.742Z,98862.38
2019-01-25T03:50:38.291Z,98883.64
2019-01-25T03:53:07.878Z,98893.13
2019-01-25T03:55:37.667Z,98897.27
2019-01-25T03:58:07.294Z,98876.69
2019-01-25T04:00:36.901Z,98884.01
2019-01-25T04:03:06.465Z,98878.05
2019-01-25T04:05:36.040Z,98870.41
2019-01-25T04:08:05.634Z,98873.22
2019-01-25T04:10:35.223Z,98886.02
2019-01-25T04:13:04.735Z,98901.66
2019-01-25T04:15:35.004Z,98901.51
2019-01-25T04:18:05.468Z,98907.66
2019-01-25T04:20:35.102Z,98899.34
2019-01-25T04:23:04.640Z,98903.48
2019-01-25T04:25:34.217Z,98895.66
2019-01-25T04:28:03.914Z,98882.30
2019-01-25T04:30:33.450Z,98887.31
2019-01-25T04:33:03.133Z,98897.45
2019-01-25T04:35:32.870Z,98898.25
2019-01-25T04:38:02.497Z,98889.78
2019-01-25T04:40:32.113Z,98897.95
2019-01-25T04:43:01.771Z,98893.13
2019-01-25T04:45:31.402Z,98896.66
2019-01-25T04:48:01.079Z,98896.01
2019-01-25T04:50:30.797Z,98884.35
2019-01-25T04:53:00.394Z,98888.68
2019-01-25T04:55:31.651Z,98907.45
2019-01-25T04:58:21.956Z,98902.13
2019-01-25T05:00:51.494Z,98909.95
2019-01-25T05:03:21.044Z,98919.25
2019-01-25T05:05:50.661Z,98928.52
2019-01-25T05:08:23.506Z,98924.04
2019-01-25T05:10:53.019Z,98927.84
2019-01-25T05:13:22.617Z,98941.47
2019-01-25T05:15:52.261Z,98944.27
2019-01-25T05:18:22.022Z,98946.55
2019-01-25T05:20:51.583Z,98948.02
2019-01-25T05:23:21.197Z,98947.05
2019-01-25T05:25:50.825Z,98948.07
2019-01-25T05:28:20.960Z,98934.78
2019-01-25T05:31:05.110Z,98918.83
2019-01-25T05:33:34.640Z,98924.79
2019-01-25T05:36:04.326Z,98928.69
2019-01-25T05:38:33.884Z,98928.69
2019-01-25T05:41:03.600Z,98935.33
2019-01-25T05:43:43.273Z,98928.98
2019-01-25T05:46:12.959Z,98915.64
2019-01-25T05:48:42.563Z,98906.34
2019-01-25T05:51:12.230Z,98904.34
2019-01-25T05:53:49.142Z,98902.71
2019-01-25T05:56:18.707Z,98915.70
2019-01-25T05:58:48.255Z,98903.36
2019-01-25T06:01:17.871Z,98908.71
2019-01-25T06:03:47.395Z,98909.25
2019-01-25T06:06:16.962Z,98902.11
2019-01-25T06:08:46.593Z,98909.78
2019-01-25T06:11:18.203Z,98911.45
2019-01-25T06:13:47.816Z,98916.09
2019-01-25T06:16:17.966Z,98909.63
2019-01-25T06:18:47.508Z,98913.48
2019-01-25T06:21:17.118Z,98932.12
2019-01-25T06:23:46.684Z,98927.45
2019-01-25T06:26:16.289Z,98930.25
2019-01-25T06:28:51.213Z,98933.41
2019-01-25T06:31:21.218Z,98932.52
2019-01-25T06:33:50.830Z,98932.52
2019-01-25T06:36:20.768Z,98932.53
2019-01-25T06:38:50.349Z,98917.42
2019-01-25T06:41:19.975Z,98919.73
2019-01-25T06:43:49.543Z,98921.20
2019-01-25T06:46:19.103Z,98921.20
2019-01-25T06:48:48.668Z,98924.85
2019-01-25T06:51:18.319Z,98928.34
2019-01-25T06:53:47.928Z,98921.25
2019-01-25T06:56:17.528Z,98917.07
2019-01-25T06:58:57.499Z,98920.07
2019-01-25T07:02:04.182Z,98920.52
2019-01-25T07:04:33.881Z,98916.77
2019-01-25T07:07:05.320Z,98916.39
2019-01-25T07:09:34.891Z,98922.92
2019-01-25T07:12:04.433Z,98922.44
2019-01-25T07:14:34.052Z,98914.50
2019-01-25T07:17:03.602Z,98907.86
2019-01-25T07:19:33.263Z,98916.17
2019-01-25T07:22:02.865Z,98904.70
2019-01-25T07:24:32.409Z,98898.75
2019-01-25T07:27:01.962Z,98904.09
2019-01-25T07:29:31.611Z,98899.92
2019-01-25T07:32:01.301Z,98906.56
2019-01-25T07:34:30.849Z,98893.92
2019-01-25T07:37:00.553Z,98898.89
2019-01-25T07:39:30.380Z,98891.95
2019-01-25T07:42:02.278Z,98883.02
2019-01-25T07:44:31.577Z,98888.61
2019-01-25T07:47:01.217Z,98885.64
2019-01-25T07:49:30.754Z,98888.34
2019-01-25T07:52:00.387Z,98881.53
2019-01-25T07:54:30.040Z,98889.73
2019-01-25T07:56:59.804Z,98882.25
2019-01-25T07:59:29.564Z,98889.89
2019-01-25T08:01:59.140Z,98891.09
2019-01-25T08:04:28.698Z,98892.23
2019-01-25T08:06:58.269Z,98888.95
2019-01-25T08:09:27.820Z,98895.13
2019-01-25T08:11:57.568Z,98902.80
2019-01-25T08:14:27.237Z,98892.47
2019-01-25T08:16:56.994Z,98889.83
2019-01-25T08:19:26.689Z,98875.56
2019-01-25T08:21:56.247Z,98877.56
2019-01-25T08:24:25.949Z,98873.91
2019-01-25T08:26:55.531Z,98881.40
2019-01-25T08:29:28.132Z,98886.06
2019-01-25T08:31:56.531Z,98887.57
2019-01-25T08:34:26.134Z,98879.43
2019-01-25T08:36:55.768Z,98895.23
2019-01-25T08:39:25.564Z,98895.05
2019-01-25T08:41:55.227Z,98890.90
2019-01-25T08:44:24.862Z,98885.59
2019-01-25T08:46:54.601Z,98880.76
2019-01-25T08:49:24.250Z,98882.77
2019-01-25T08:51:54.337Z,98878.80
2019-01-25T08:54:23.912Z,98878.63
2019-01-25T08:56:53.481Z,98879.27
2019-01-25T08:59:23.041Z,98872.97
2019-01-25T09:01:52.652Z,98864.63
2019-01-25T09:04:22.226Z,98869.97
2019-01-25T09:06:51.768Z,98857.83
2019-01-25T09:09:21.347Z,98861.33
2019-01-25T09:11:50.959Z,98851.66
2019-01-25T09:14:21.769Z,98856.33
2019-01-25T09:16:51.313Z,98842.34
2019-01-25T09:19:20.934Z,98859.34
2019-01-25T09:21:50.469Z,98843.34
2019-01-25T09:24:20.088Z,98844.69
2019-01-25T09:26:49.657Z,98833.53
2019-01-25T09:29:19.256Z,98837.02
2019-01-25T09:31:48.913Z,98834.36
2019-01-25T09:34:18.820Z,98827.35
2019-01-25T09:36:48.401Z,98806.02
2019-01-25T09:39:17.958Z,98815.66
2019-01-25T09:41:47.547Z,98795.37
2019-01-25T09:44:17.113Z,98816.16
2019-01-25T09:46:46.668Z,98811.66
2019-01-25T09:49:16.236Z,98815.83
2019-01-25T09:51:45.862Z,98794.02
2019-01-25T09:54:15.397Z,98788.95
2019-01-25T09:56:45.081Z,98789.09
2019-01-25T09:59:14.635Z,98778.76
2019-01-25T10:01:44.300Z,98773.33
2019-01-25T10:04:14.017Z,98771.33
2019-01-25T10:06:43.573Z,98766.00
2019-01-25T10:09:13.195Z,98768.00
2019-01-25T10:11:42.753Z,98774.30
2019-01-25T10:14:12.320Z,98779.33
2019-01-25T10:16:41.952Z,98775.69
2019-01-25T10:19:11.570Z,98770.05
2019-01-25T10:21:42.254Z,98761.39
2019-01-25T10:24:11.797Z,98755.34
2019-01-25T10:26:41.404Z,98751.14
2019-01-25T10:29:10.988Z,98743.94
2019-01-25T10:31:40.552Z,98747.05
2019-01-25T10:34:10.193Z,98735.42
2019-01-25T10:36:39.741Z,98738.08
2019-01-25T10:39:09.876Z,98742.94
2019-01-25T10:41:39.440Z,98736.41
2019-01-25T10:44:09.812Z,98735.78
2019-01-25T10:46:39.450Z,98736.35
2019-01-25T10:49:09.207Z,98734.02
2019-01-25T10:51:38.763Z,98734.11
2019-01-25T10:54:08.358Z,98729.89
2019-01-25T10:56:41.906Z,98740.67
2019-01-25T10:59:09.315Z,98726.38
2019-01-25T11:01:39.581Z,98724.94
2019-01-25T11:04:11.537Z,98726.89
2019-01-25T11:06:40.683Z,98727.98
2019-01-25T11:09:11.162Z,98712.86
2019-01-25T11:11:41.674Z,98714.56
2019-01-25T11:14:11.343Z,98705.08
2019-01-25T11:16:40.912Z,98704.03
2019-01-25T11:19:11.816Z,98700.08
2019-01-25T11:21:41.468Z,98701.70
2019-01-25T11:24:11.209Z,98701.49
2019-01-25T11:26:40.813Z,98698.00
2019-01-25T11:29:10.356Z,98694.37
2019-01-25T11:31:39.926Z,98695.66
2019-01-25T11:34:09.546Z,98690.37
2019-01-25T11:36:39.098Z,98688.07
2019-01-25T11:39:10.470Z,98684.22
2019-01-25T11:41:40.048Z,98682.12
2019-01-25T11:44:09.599Z,98672.73
2019-01-25T11:46:39.160Z,98672.67
2019-01-25T11:49:08.729Z,98669.24
2019-01-25T11:51:38.417Z,98666.08
2019-01-25T11:54:07.996Z,98671.53
2019-01-25T11:56:37.522Z,98669.52
2019-01-25T11:59:07.057Z,98661.17
2019-01-25T12:01:36.621Z,98658.88
2019-01-25T12:04:06.362Z,98657.88
2019-01-25T12:06:35.885Z,98657.33
2019-01-25T12:09:09.212Z,98646.33
2019-01-25T12:11:38.851Z,98645.96
2019-01-25T12:14:08.385Z,98638.42
2019-01-25T12:16:37.974Z,98636.80
2019-01-25T12:19:07.810Z,98632.86
2019-01-25T12:21:37.381Z,98625.91
2019-01-25T12:24:07.024Z,98627.19
2019-01-25T12:26:36.565Z,98624.05
2019-01-25T12:29:06.184Z,98619.86
2019-01-25T12:31:35.746Z,98618.43
2019-01-25T12:34:05.337Z,98615.33
2019-01-25T12:36:34.913Z,98616.67
2019-01-25T12:39:06.363Z,98611.13
2019-01-25T12:41:36.039Z,98606.33
2019-01-25T12:44:05.735Z,98597.09
2019-01-25T12:46:35.375Z,98602.14
2019-01-25T12:49:05.008Z,98607.63
2019-01-25T12:51:58.645Z,98604.03
2019-01-25T12:54:28.285Z,98605.69
2019-01-25T12:56:57.829Z,98599.81
2019-01-25T12:59:27.443Z,98606.45
2019-01-25T13:01:56.980Z,98604.02
2019-01-25T13:04:26.623Z,98589.60
2019-01-25T13:06:56.203Z,98591.00
2019-01-25T13:09:25.765Z,98586.67
2019-01-25T13:11:55.364Z,98595.52
2019-01-25T13:14:25.040Z,98593.50
2019-01-25T13:16:54.695Z,98596.31
2019-01-25T13:19:24.231Z,98608.88
2019-01-25T13:21:53.786Z,98601.86
2019-01-25T13:24:23.404Z,98601.09
2019-01-25T13:26:52.941Z,98597.63
2019-01-25T13:29:26.406Z,98595.11
2019-01-25T13:31:53.824Z,98595.42
2019-01-25T13:34:23.617Z,98598.96
2019-01-25T13:36:57.098Z,98595.96
2019-01-25T13:39:24.602Z,98598.09
2019-01-25T13:41:54.241Z,98610.88
2019-01-25T13:44:23.845Z,98594.69
2019-01-25T13:46:53.385Z,98597.30
2019-01-25T13:49:24.308Z,98594.84
2019-01-25T13:51:53.969Z,98584.33
2019-01-25T13:54:23.568Z,98589.16
2019-01-25T13:56:53.134Z,98584.63
2019-01-25T13:59:22.683Z,98594.23
2019-01-25T14:01:56.198Z,98585.11
2019-01-25T14:04:26.047Z,98599.22
2019-01-25T14:06:55.676Z,98595.58
2019-01-25T14:09:25.371Z,98590.82
2019-01-25T14:11:54.995Z,98589.07
2019-01-25T14:14:24.613Z,98593.80
2019-01-25T14:16:54.257Z,98595.36
2019-01-25T14:19:23.886Z,98591.34
2019-01-25T14:21:53.471Z,98599.05
2019-01-25T14:24:23.089Z,98591.42
2019-01-25T14:26:52.756Z,98592.63
2019-01-25T14:29:22.419Z,98579.19
2019-01-25T14:31:51.977Z,98582.99
2019-01-25T14:34:21.558Z,98583.72
2019-01-25T14:36:51.156Z,98584.59
2019-01-25T14:39:20.745Z,98584.02
2019-01-25T14:41:50.309Z,98586.86
2019-01-25T14:44:19.951Z,98582.41
2019-01-25T14:46:49.922Z,98581.62
2019-01-25T14:49:19.598Z,98577.80
2019-01-25T14:51:49.334Z,98578.91
2019-01-25T14:54:18.972Z,98580.69
2019-01-25T14:56:48.632Z,98568.31
2019-01-25T14:59:18.283Z,98572.83
2019-01-25T15:01:47.863Z,98575.94
2019-01-25T15:04:17.720Z,98576.33
2019-01-25T15:06:47.288Z,98571.67
2019-01-25T15:09:17.252Z,98574.63
2019-01-25T15:11:46.952Z,98568.22
2019-01-25T15:14:16.577Z,98565.36
2019-01-25T15:16:49.088Z,98564.05
2019-01-25T15:19:18.848Z,98556.85
2019-01-25T15:21:48.443Z,98557.95
2019-01-25T15:24:18.142Z,98551.94
2019-01-25T15:26:47.723Z,98564.22
2019-01-25T15:29:17.279Z,98565.52
2019-01-25T15:31:46.872Z,98558.34
2019-01-25T15:34:16.503Z,98556.45
2019-01-25T15:36:46.081Z,98551.41
2019-01-25T15:39:15.977Z,98547.08
2019-01-25T15:41:45.553Z,98552.33
2019-01-25T15:44:15.919Z,98546.93
2019-01-25T15:46:45.806Z,98541.67
2019-01-25T15:49:15.376Z,98541.07
2019-01-25T15:51:45.351Z,98534.91
2019-01-25T15:54:17.455Z,98544.13
2019-01-25T15:56:46.990Z,98534.22
2019-01-25T15:59:16.581Z,98540.81
2019-01-25T16:01:48.896Z,98539.38
2019-01-25T16:04:18.973Z,98536.42
2019-01-25T16:06:48.581Z,98532.78
2019-01-25T16:09:23.284Z,98527.95
2019-01-25T16:11:49.760Z,98528.78
2019-01-25T16:14:20.353Z,98527.12
2019-01-25T16:16:49.937Z,98534.43
2019-01-25T16:19:19.571Z,98530.88
2019-01-25T16:21:49.642Z,98532.34
2019-01-25T16:24:20.149Z,98525.50
2019-01-25T16:26:49.724Z,98518.66
2019-01-25T16:29:19.270Z,98518.96
2019-01-25T16:31:49.309Z,98518.96
2019-01-25T16:34:18.930Z,98525.62
2019-01-25T16:36:48.486Z,98518.12
2019-01-25T16:39:18.104Z,98510.67
2019-01-25T16:41:47.720Z,98517.13
2019-01-25T16:44:25.712Z,98512.00
2019-01-25T16:46:53.425Z,98509.30
2019-01-25T16:49:23.065Z,98508.58
2019-01-25T16:51:54.081Z,98511.89
2019-01-25T16:54:24.080Z,98507.20
2019-01-25T16:56:54.692Z,98511.83
2019-01-25T16:59:24.998Z,98512.54
2019-01-25T17:01:54.542Z,98515.81
2019-01-25T17:04:24.610Z,98512.14
2019-01-25T17:06:54.234Z,98509.81
2019-01-25T17:09:25.145Z,98505.09
2019-01-25T17:11:56.396Z,98505.92
2019-01-25T17:14:33.140Z,98503.91
2019-01-25T17:16:58.385Z,98507.73
2019-01-25T17:19:29.509Z,98494.17
2019-01-25T17:21:59.346Z,98497.91
2019-01-25T17:24:29.254Z,98495.69
2019-01-25T17:26:59.041Z,98497.02
2019-01-25T17:29:31.736Z,98495.48
2019-01-25T17:32:01.389Z,98489.41
2019-01-25T17:34:31.076Z,98482.69
2019-01-25T17:37:00.679Z,98476.08
2019-01-25T17:39:30.241Z,98472.23
2019-01-25T17:42:00.054Z,98473.14
2019-01-25T17:44:29.585Z,98479.06
2019-01-25T17:46:59.641Z,98441.88
2019-01-25T17:49:29.234Z,98477.89
2019-01-25T17:51:59.651Z,98476.81
2019-01-25T17:54:29.368Z,98478.11
2019-01-25T17:56:58.947Z,98470.93
2019-01-25T17:59:28.988Z,98472.02
2019-01-25T18:01:58.590Z,98465.59
2019-01-25T18:04:31.567Z,98466.38
2019-01-25T18:07:01.122Z,98462.41
2019-01-25T18:09:30.674Z,98464.06
2019-01-25T18:12:00.294Z,98468.07
2019-01-25T18:14:29.991Z,98462.98
2019-01-25T18:16:59.536Z,98462.61
2019-01-25T18:19:29.583Z,98460.38
2019-01-25T18:21:59.139Z,98471.80
2019-01-25T18:24:28.864Z,98476.09
2019-01-25T18:26:58.567Z,98466.33
2019-01-25T18:29:40.212Z,98469.57
2019-01-25T18:32:09.916Z,98459.89
2019-01-25T18:34:39.561Z,98459.52
2019-01-25T18:37:09.116Z,98463.67
2019-01-25T18:39:38.672Z,98457.36
2019-01-25T18:42:08.258Z,98459.13
2019-01-25T18:44:37.895Z,98457.09
2019-01-25T18:47:07.479Z,98451.75
2019-01-25T18:49:37.021Z,98448.33
2019-01-25T18:52:06.570Z,98437.38
2019-01-25T18:54:36.207Z,98443.04
2019-01-25T18:57:05.900Z,98441.14
2019-01-25T18:59:35.589Z,98438.25
2019-01-25T19:02:07.704Z,98429.30
2019-01-25T19:04:37.364Z,98432.34
2019-01-25T19:07:07.067Z,98434.64
2019-01-25T19:09:36.692Z,98423.44
2019-01-25T19:12:06.596Z,98423.69
2019-01-25T19:14:36.152Z,98417.19
2019-01-25T19:17:05.695Z,98418.66
2019-01-25T19:19:35.777Z,98414.78
2019-01-25T19:22:05.395Z,98412.16
2019-01-25T19:24:35.101Z,98412.80
2019-01-25T19:27:05.034Z,98409.49
2019-01-25T19:29:34.742Z,98407.00
2019-01-25T19:32:04.409Z,98405.30
2019-01-25T19:34:34.027Z,98409.76
2019-01-25T19:37:03.591Z,98411.79
2019-01-25T19:39:33.234Z,98408.84
2019-01-25T19:42:02.881Z,98407.27
2019-01-25T19:44:32.470Z,98405.34
2019-01-25T19:47:02.039Z,98404.84
2019-01-25T19:49:31.712Z,98413.77
2019-01-25T19:52:01.246Z,98405.75
2019-01-25T19:54:30.781Z,98404.92
2019-01-25T19:57:00.363Z,98407.45
2019-01-25T19:59:29.931Z,98408.80
2019-01-25T20:01:59.632Z,98407.83
2019-01-25T20:04:29.186Z,98408.47
2019-01-25T20:07:00.928Z,98394.33
2019-01-25T20:09:30.505Z,98399.44
2019-01-25T20:12:00.122Z,98404.00
2019-01-25T20:14:29.729Z,98401.59
2019-01-25T20:16:59.489Z,98401.14
2019-01-25T20:19:29.053Z,98400.58
2019-01-25T20:21:58.617Z,98394.72
2019-01-25T20:24:29.844Z,98401.51
2019-01-25T20:26:59.451Z,98398.77
2019-01-25T20:29:28.983Z,98394.06
2019-01-25T20:31:58.537Z,98394.16
2019-01-25T20:34:28.180Z,98392.26
2019-01-25T20:36:57.749Z,98394.94
2019-01-25T20:39:27.314Z,98389.61
2019-01-25T20:41:56.927Z,98401.24
2019-01-25T20:44:26.462Z,98399.58
2019-01-25T20:46:56.111Z,98398.47
2019-01-25T20:49:25.684Z,98395.57
2019-01-25T20:51:55.256Z,98398.47
2019-01-25T20:54:24.827Z,98396.44
2019-01-25T20:56:54.486Z,98400.06
2019-01-25T20:59:24.284Z,98400.77
2019-01-25T21:01:53.909Z,98403.44
2019-01-25T21:04:23.478Z,98406.91
2019-01-25T21:06:53.018Z,98410.66
2019-01-25T21:09:22.713Z,98409.00
2019-01-25T21:11:52.406Z,98412.95
2019-01-25T21:14:21.990Z,98403.91
2019-01-25T21:16:51.553Z,98400.47
2019-01-25T21:19:21.086Z,98404.35
2019-01-25T21:21:51.100Z,98406.80
2019-01-25T21:24:20.681Z,98399.27
2019-01-25T21:26:50.254Z,98397.56
2019-01-25T21:29:19.847Z,98394.30
2019-01-25T21:31:49.410Z,98408.05
2019-01-25T21:34:19.084Z,98387.93
2019-01-25T21:36:49.025Z,98390.98
2019-01-25T21:39:18.578Z,98390.05
2019-01-25T21:41:48.104Z,98390.30
2019-01-25T21:44:17.723Z,98386.88
2019-01-25T21:46:47.323Z,98383.59
2019-01-25T21:49:16.975Z,98377.83
2019-01-25T21:51:46.714Z,98378.89
2019-01-25T21:54:16.430Z,98380.16
2019-01-25T21:56:46.049Z,98380.55
2019-01-25T21:59:15.611Z,98381.44
2019-01-25T22:01:45.177Z,98380.86
2019-01-25T22:04:14.780Z,98376.84
2019-01-25T22:06:44.443Z,98380.22
2019-01-25T22:09:14.113Z,98375.03
2019-01-25T22:11:43.815Z,98373.28
2019-01-25T22:14:13.525Z,98370.61
2019-01-25T22:16:43.259Z,98369.84
2019-01-25T22:19:12.835Z,98378.41
2019-01-25T22:21:42.444Z,98369.87
2019-01-25T22:24:12.178Z,98365.80
2019-01-25T22:26:41.832Z,98370.84
2019-01-25T22:29:11.482Z,98367.23
2019-01-25T22:31:41.042Z,98362.52
2019-01-25T22:34:10.628Z,98378.16
2019-01-25T22:36:40.373Z,98373.41
2019-01-25T22:39:10.014Z,98374.84
2019-01-25T22:41:39.579Z,98370.80
2019-01-25T22:44:09.250Z,98374.84
2019-01-25T22:46:38.923Z,98371.73
2019-01-25T22:49:08.528Z,98369.18
2019-01-25T22:51:38.142Z,98363.38
2019-01-25T22:54:07.690Z,98360.64
2019-01-25T22:56:37.356Z,98366.57
2019-01-25T22:59:06.963Z,98364.63
2019-01-25T23:01:36.958Z,98361.03
2019-01-25T23:04:46.913Z,98367.02
2019-01-25T23:07:41.744Z,98361.19
2019-01-25T23:10:16.406Z,98359.69
2019-01-25T23:12:46.164Z,98362.36
2019-01-25T23:15:17.627Z,98362.36
2019-01-25T23:17:47.233Z,98351.98
2019-01-25T23:20:16.790Z,98356.84
2019-01-25T23:22:46.351Z,98352.19
2019-01-25T23:25:15.942Z,98369.39
2019-01-25T23:27:45.561Z,98365.02
2019-01-25T23:30:16.931Z,98361.11
2019-01-25T23:32:47.030Z,98365.54
2019-01-25T23:35:16.595Z,98364.47
2019-01-25T23:37:46.145Z,98371.57
2019-01-25T23:40:16.411Z,98368.13
2019-01-25T23:42:45.953Z,98361.17
2019-01-25T23:45:15.512Z,98363.24
2019-01-25T23:47:45.174Z,98370.48
2019-01-25T23:50:14.734Z,98369.17
2019-01-25T23:52:44.275Z,98373.03
2019-01-25T23:55:14.032Z,98364.56
2019-01-25T23:57:43.689Z,98382.49
